sensor_id;sensor_type;location;lat;lon;timestamp;P1;durP1;ratioP1;P2;durP2;ratioP2
32333;SDS011;18810;53.040;8.850;2023-12-28T00:01:12;6.35;;;4.57;;
32333;SDS011;18810;53.040;8.850;2023-12-28T00:03:37;5.18;;;3.63;;
32333;SDS011;18810;53.040;8.850;2023-12-28T00:06:05;7.43;;;4.63;;
32333;SDS011;18810;53.040;8.850;2023-12-28T00:08:31;7.45;;;4.97;;
32333;SDS011;18810;53.040;8.850;2023-12-28T00:10:57;8.05;;;4.90;;
32333;SDS011;18810;53.040;8.850;2023-12-28T00:13:23;12.50;;;6.97;;
32333;SDS011;18810;53.040;8.850;2023-12-28T00:15:49;6.22;;;4.43;;
32333;SDS011;18810;53.040;8.850;2023-12-28T00:18:15;7.25;;;4.47;;
32333;SDS011;18810;53.040;8.850;2023-12-28T00:20:40;8.57;;;4.50;;
32333;SDS011;18810;53.040;8.850;2023-12-28T00:23:06;7.38;;;5.82;;
32333;SDS011;18810;53.040;8.850;2023-12-28T00:25:32;5.25;;;4.18;;
32333;SDS011;18810;53.040;8.850;2023-12-28T00:27:57;8.80;;;4.68;;
32333;SDS011;18810;53.040;8.850;2023-12-28T00:30:23;5.32;;;4.20;;
32333;SDS011;18810;53.040;8.850;2023-12-28T00:32:49;6.18;;;3.92;;
32333;SDS011;18810;53.040;8.850;2023-12-28T00:35:14;5.60;;;3.80;;
32333;SDS011;18810;53.040;8.850;2023-12-28T00:37:40;7.57;;;5.07;;
32333;SDS011;18810;53.040;8.850;2023-12-28T00:40:06;8.20;;;5.63;;
32333;SDS011;18810;53.040;8.850;2023-12-28T00:42:32;4.88;;;3.95;;
32333;SDS011;18810;53.040;8.850;2023-12-28T00:44:58;9.82;;;5.95;;
32333;SDS011;18810;53.040;8.850;2023-12-28T00:47:24;9.65;;;7.90;;
32333;SDS011;18810;53.040;8.850;2023-12-28T00:49:50;15.90;;;11.38;;
32333;SDS011;18810;53.040;8.850;2023-12-28T00:52:16;23.08;;;12.30;;
32333;SDS011;18810;53.040;8.850;2023-12-28T00:54:41;13.60;;;7.18;;
32333;SDS011;18810;53.040;8.850;2023-12-28T00:57:07;17.27;;;11.18;;
32333;SDS011;18810;53.040;8.850;2023-12-28T00:59:33;9.75;;;7.63;;
32333;SDS011;18810;53.040;8.850;2023-12-28T01:01:58;6.45;;;4.45;;
32333;SDS011;18810;53.040;8.850;2023-12-28T01:04:24;8.15;;;4.28;;
32333;SDS011;18810;53.040;8.850;2023-12-28T01:06:50;7.90;;;3.65;;
32333;SDS011;18810;53.040;8.850;2023-12-28T01:09:17;7.80;;;5.57;;
32333;SDS011;18810;53.040;8.850;2023-12-28T01:11:42;10.82;;;6.28;;
32333;SDS011;18810;53.040;8.850;2023-12-28T01:14:08;16.45;;;8.57;;
32333;SDS011;18810;53.040;8.850;2023-12-28T01:16:34;12.98;;;6.85;;
32333;SDS011;18810;53.040;8.850;2023-12-28T01:19:00;16.73;;;7.18;;
32333;SDS011;18810;53.040;8.850;2023-12-28T01:21:26;13.25;;;5.13;;
32333;SDS011;18810;53.040;8.850;2023-12-28T01:23:53;4.82;;;3.63;;
32333;SDS011;18810;53.040;8.850;2023-12-28T01:26:19;4.45;;;3.90;;
32333;SDS011;18810;53.040;8.850;2023-12-28T01:28:45;9.35;;;4.40;;
32333;SDS011;18810;53.040;8.850;2023-12-28T01:31:11;9.70;;;4.40;;
32333;SDS011;18810;53.040;8.850;2023-12-28T01:33:37;5.93;;;4.00;;
32333;SDS011;18810;53.040;8.850;2023-12-28T01:36:03;5.07;;;3.70;;
32333;SDS011;18810;53.040;8.850;2023-12-28T01:38:45;7.75;;;4.13;;
32333;SDS011;18810;53.040;8.850;2023-12-28T01:41:12;7.38;;;4.22;;
32333;SDS011;18810;53.040;8.850;2023-12-28T01:43:38;6.32;;;4.13;;
32333;SDS011;18810;53.040;8.850;2023-12-28T01:46:15;4.78;;;4.00;;
32333;SDS011;18810;53.040;8.850;2023-12-28T01:48:43;8.45;;;4.32;;
32333;SDS011;18810;53.040;8.850;2023-12-28T01:51:10;8.48;;;4.43;;
32333;SDS011;18810;53.040;8.850;2023-12-28T01:53:38;5.00;;;4.20;;
32333;SDS011;18810;53.040;8.850;2023-12-28T01:56:04;5.90;;;4.30;;
32333;SDS011;18810;53.040;8.850;2023-12-28T01:58:32;6.30;;;4.47;;
32333;SDS011;18810;53.040;8.850;2023-12-28T02:01:00;6.38;;;4.57;;
32333;SDS011;18810;53.040;8.850;2023-12-28T02:03:26;6.35;;;4.20;;
32333;SDS011;18810;53.040;8.850;2023-12-28T02:05:52;7.93;;;4.45;;
32333;SDS011;18810;53.040;8.850;2023-12-28T02:08:19;8.05;;;4.18;;
32333;SDS011;18810;53.040;8.850;2023-12-28T02:10:45;8.05;;;4.35;;
32333;SDS011;18810;53.040;8.850;2023-12-28T02:13:11;7.65;;;4.22;;
32333;SDS011;18810;53.040;8.850;2023-12-28T02:15:37;5.13;;;4.30;;
32333;SDS011;18810;53.040;8.850;2023-12-28T02:18:05;7.88;;;4.65;;
32333;SDS011;18810;53.040;8.850;2023-12-28T02:20:41;7.53;;;4.43;;
32333;SDS011;18810;53.040;8.850;2023-12-28T02:23:09;6.22;;;4.53;;
32333;SDS011;18810;53.040;8.850;2023-12-28T02:25:35;6.15;;;4.45;;
32333;SDS011;18810;53.040;8.850;2023-12-28T02:28:01;6.22;;;4.10;;
32333;SDS011;18810;53.040;8.850;2023-12-28T02:30:27;6.75;;;4.60;;
32333;SDS011;18810;53.040;8.850;2023-12-28T02:33:15;6.38;;;4.40;;
32333;SDS011;18810;53.040;8.850;2023-12-28T02:36:04;8.27;;;4.50;;
32333;SDS011;18810;53.040;8.850;2023-12-28T02:38:35;6.43;;;4.28;;
32333;SDS011;18810;53.040;8.850;2023-12-28T02:41:03;5.72;;;4.78;;
32333;SDS011;18810;53.040;8.850;2023-12-28T02:43:29;6.90;;;4.70;;
32333;SDS011;18810;53.040;8.850;2023-12-28T02:45:54;7.97;;;4.85;;
32333;SDS011;18810;53.040;8.850;2023-12-28T02:48:20;10.00;;;4.88;;
32333;SDS011;18810;53.040;8.850;2023-12-28T02:50:46;6.97;;;4.20;;
32333;SDS011;18810;53.040;8.850;2023-12-28T02:53:12;5.90;;;4.53;;
32333;SDS011;18810;53.040;8.850;2023-12-28T02:55:38;8.82;;;4.75;;
32333;SDS011;18810;53.040;8.850;2023-12-28T02:58:04;7.38;;;4.93;;
32333;SDS011;18810;53.040;8.850;2023-12-28T03:00:30;6.72;;;4.68;;
32333;SDS011;18810;53.040;8.850;2023-12-28T03:02:56;6.50;;;4.88;;
32333;SDS011;18810;53.040;8.850;2023-12-28T03:05:21;6.95;;;4.43;;
32333;SDS011;18810;53.040;8.850;2023-12-28T03:07:47;8.10;;;4.43;;
32333;SDS011;18810;53.040;8.850;2023-12-28T03:10:13;7.63;;;4.65;;
32333;SDS011;18810;53.040;8.850;2023-12-28T03:12:39;5.55;;;4.35;;
32333;SDS011;18810;53.040;8.850;2023-12-28T03:15:05;6.60;;;4.47;;
32333;SDS011;18810;53.040;8.850;2023-12-28T03:17:31;7.53;;;4.32;;
32333;SDS011;18810;53.040;8.850;2023-12-28T03:20:00;7.32;;;4.57;;
32333;SDS011;18810;53.040;8.850;2023-12-28T03:22:26;6.50;;;4.20;;
32333;SDS011;18810;53.040;8.850;2023-12-28T03:24:52;7.88;;;4.80;;
32333;SDS011;18810;53.040;8.850;2023-12-28T03:27:17;5.25;;;3.95;;
32333;SDS011;18810;53.040;8.850;2023-12-28T03:29:43;6.32;;;4.40;;
32333;SDS011;18810;53.040;8.850;2023-12-28T03:32:09;7.72;;;4.63;;
32333;SDS011;18810;53.040;8.850;2023-12-28T03:34:35;6.75;;;4.70;;
32333;SDS011;18810;53.040;8.850;2023-12-28T03:37:01;7.90;;;4.38;;
32333;SDS011;18810;53.040;8.850;2023-12-28T03:39:27;6.88;;;4.63;;
32333;SDS011;18810;53.040;8.850;2023-12-28T03:41:53;6.93;;;4.75;;
32333;SDS011;18810;53.040;8.850;2023-12-28T03:44:19;7.53;;;4.75;;
32333;SDS011;18810;53.040;8.850;2023-12-28T03:46:51;6.07;;;4.85;;
32333;SDS011;18810;53.040;8.850;2023-12-28T03:49:17;7.60;;;4.63;;
32333;SDS011;18810;53.040;8.850;2023-12-28T03:51:43;6.30;;;4.50;;
32333;SDS011;18810;53.040;8.850;2023-12-28T03:54:09;7.22;;;5.13;;
32333;SDS011;18810;53.040;8.850;2023-12-28T03:56:35;8.02;;;4.68;;
32333;SDS011;18810;53.040;8.850;2023-12-28T03:59:02;9.77;;;4.88;;
32333;SDS011;18810;53.040;8.850;2023-12-28T04:01:27;6.75;;;4.45;;
32333;SDS011;18810;53.040;8.850;2023-12-28T04:03:53;5.90;;;4.88;;
32333;SDS011;18810;53.040;8.850;2023-12-28T04:06:19;5.90;;;4.82;;
32333;SDS011;18810;53.040;8.850;2023-12-28T04:08:45;7.40;;;4.45;;
32333;SDS011;18810;53.040;8.850;2023-12-28T04:11:10;7.30;;;4.60;;
32333;SDS011;18810;53.040;8.850;2023-12-28T04:13:36;5.38;;;4.43;;
32333;SDS011;18810;53.040;8.850;2023-12-28T04:16:02;8.80;;;4.85;;
32333;SDS011;18810;53.040;8.850;2023-12-28T04:18:28;8.38;;;5.78;;
32333;SDS011;18810;53.040;8.850;2023-12-28T04:20:54;9.23;;;4.93;;
32333;SDS011;18810;53.040;8.850;2023-12-28T04:23:20;6.15;;;4.68;;
32333;SDS011;18810;53.040;8.850;2023-12-28T04:25:46;7.72;;;5.18;;
32333;SDS011;18810;53.040;8.850;2023-12-28T04:28:12;7.18;;;4.30;;
32333;SDS011;18810;53.040;8.850;2023-12-28T04:30:38;10.85;;;5.15;;
32333;SDS011;18810;53.040;8.850;2023-12-28T04:33:04;9.90;;;5.95;;
32333;SDS011;18810;53.040;8.850;2023-12-28T04:35:29;7.40;;;4.97;;
32333;SDS011;18810;53.040;8.850;2023-12-28T04:37:55;7.90;;;4.50;;
32333;SDS011;18810;53.040;8.850;2023-12-28T04:40:21;6.05;;;5.15;;
32333;SDS011;18810;53.040;8.850;2023-12-28T04:42:47;6.70;;;4.65;;
32333;SDS011;18810;53.040;8.850;2023-12-28T04:45:13;9.75;;;5.20;;
32333;SDS011;18810;53.040;8.850;2023-12-28T04:47:39;8.82;;;5.45;;
32333;SDS011;18810;53.040;8.850;2023-12-28T04:50:05;8.82;;;4.85;;
32333;SDS011;18810;53.040;8.850;2023-12-28T04:52:32;7.25;;;4.78;;
32333;SDS011;18810;53.040;8.850;2023-12-28T04:54:58;6.30;;;4.85;;
32333;SDS011;18810;53.040;8.850;2023-12-28T04:57:24;7.60;;;4.68;;
32333;SDS011;18810;53.040;8.850;2023-12-28T04:59:50;8.68;;;4.50;;
32333;SDS011;18810;53.040;8.850;2023-12-28T05:02:17;7.15;;;4.95;;
32333;SDS011;18810;53.040;8.850;2023-12-28T05:04:42;7.57;;;5.22;;
32333;SDS011;18810;53.040;8.850;2023-12-28T05:07:08;11.85;;;5.85;;
32333;SDS011;18810;53.040;8.850;2023-12-28T05:09:34;13.38;;;5.50;;
32333;SDS011;18810;53.040;8.850;2023-12-28T05:12:00;10.25;;;5.07;;
32333;SDS011;18810;53.040;8.850;2023-12-28T05:14:25;10.40;;;5.88;;
32333;SDS011;18810;53.040;8.850;2023-12-28T05:16:52;7.78;;;5.63;;
32333;SDS011;18810;53.040;8.850;2023-12-28T05:19:17;8.95;;;5.60;;
32333;SDS011;18810;53.040;8.850;2023-12-28T05:21:43;10.32;;;5.75;;
32333;SDS011;18810;53.040;8.850;2023-12-28T05:24:09;9.02;;;5.68;;
32333;SDS011;18810;53.040;8.850;2023-12-28T05:26:35;7.95;;;5.47;;
32333;SDS011;18810;53.040;8.850;2023-12-28T05:29:00;10.45;;;6.13;;
32333;SDS011;18810;53.040;8.850;2023-12-28T05:31:26;9.98;;;5.60;;
32333;SDS011;18810;53.040;8.850;2023-12-28T05:33:52;8.23;;;5.47;;
32333;SDS011;18810;53.040;8.850;2023-12-28T05:36:17;10.13;;;5.38;;
32333;SDS011;18810;53.040;8.850;2023-12-28T05:38:43;9.10;;;6.20;;
32333;SDS011;18810;53.040;8.850;2023-12-28T05:41:09;9.32;;;5.97;;
32333;SDS011;18810;53.040;8.850;2023-12-28T05:43:36;9.43;;;5.22;;
32333;SDS011;18810;53.040;8.850;2023-12-28T05:46:02;8.40;;;5.47;;
32333;SDS011;18810;53.040;8.850;2023-12-28T05:48:28;6.78;;;5.15;;
32333;SDS011;18810;53.040;8.850;2023-12-28T05:50:54;9.65;;;5.90;;
32333;SDS011;18810;53.040;8.850;2023-12-28T05:53:19;9.10;;;5.40;;
32333;SDS011;18810;53.040;8.850;2023-12-28T05:55:45;9.20;;;5.68;;
32333;SDS011;18810;53.040;8.850;2023-12-28T05:58:11;6.85;;;5.35;;
32333;SDS011;18810;53.040;8.850;2023-12-28T06:00:36;8.13;;;5.05;;
32333;SDS011;18810;53.040;8.850;2023-12-28T06:03:03;10.55;;;5.15;;
32333;SDS011;18810;53.040;8.850;2023-12-28T06:05:30;9.93;;;5.40;;
32333;SDS011;18810;53.040;8.850;2023-12-28T06:07:56;7.80;;;4.97;;
32333;SDS011;18810;53.040;8.850;2023-12-28T06:10:22;7.65;;;5.00;;
32333;SDS011;18810;53.040;8.850;2023-12-28T06:12:49;9.80;;;5.20;;
32333;SDS011;18810;53.040;8.850;2023-12-28T06:15:15;9.57;;;5.15;;
32333;SDS011;18810;53.040;8.850;2023-12-28T06:17:41;5.88;;;4.38;;
32333;SDS011;18810;53.040;8.850;2023-12-28T06:20:07;12.25;;;5.32;;
32333;SDS011;18810;53.040;8.850;2023-12-28T06:22:33;8.25;;;4.93;;
32333;SDS011;18810;53.040;8.850;2023-12-28T06:25:01;7.65;;;4.60;;
32333;SDS011;18810;53.040;8.850;2023-12-28T06:27:28;6.93;;;4.82;;
32333;SDS011;18810;53.040;8.850;2023-12-28T06:29:54;9.35;;;4.38;;
32333;SDS011;18810;53.040;8.850;2023-12-28T06:32:20;9.25;;;4.25;;
32333;SDS011;18810;53.040;8.850;2023-12-28T06:34:46;8.73;;;4.60;;
32333;SDS011;18810;53.040;8.850;2023-12-28T06:37:12;9.23;;;5.07;;
32333;SDS011;18810;53.040;8.850;2023-12-28T06:39:38;7.32;;;5.10;;
32333;SDS011;18810;53.040;8.850;2023-12-28T06:42:04;8.70;;;4.30;;
32333;SDS011;18810;53.040;8.850;2023-12-28T06:44:30;7.28;;;4.15;;
32333;SDS011;18810;53.040;8.850;2023-12-28T06:46:56;9.57;;;4.03;;
32333;SDS011;18810;53.040;8.850;2023-12-28T06:49:21;11.30;;;4.22;;
32333;SDS011;18810;53.040;8.850;2023-12-28T06:51:48;6.57;;;4.30;;
32333;SDS011;18810;53.040;8.850;2023-12-28T06:54:14;9.55;;;4.20;;
32333;SDS011;18810;53.040;8.850;2023-12-28T06:56:40;8.32;;;4.05;;
32333;SDS011;18810;53.040;8.850;2023-12-28T06:59:06;8.63;;;3.50;;
32333;SDS011;18810;53.040;8.850;2023-12-28T07:01:31;8.18;;;3.55;;
32333;SDS011;18810;53.040;8.850;2023-12-28T07:03:57;8.07;;;3.50;;
32333;SDS011;18810;53.040;8.850;2023-12-28T07:06:24;7.15;;;3.30;;
32333;SDS011;18810;53.040;8.850;2023-12-28T07:08:50;5.85;;;3.33;;
32333;SDS011;18810;53.040;8.850;2023-12-28T07:11:16;8.68;;;3.80;;
32333;SDS011;18810;53.040;8.850;2023-12-28T07:13:42;11.32;;;4.18;;
32333;SDS011;18810;53.040;8.850;2023-12-28T07:16:08;9.25;;;3.65;;
32333;SDS011;18810;53.040;8.850;2023-12-28T07:18:34;9.07;;;3.58;;
32333;SDS011;18810;53.040;8.850;2023-12-28T07:21:00;11.00;;;3.80;;
32333;SDS011;18810;53.040;8.850;2023-12-28T07:23:26;9.30;;;3.28;;
32333;SDS011;18810;53.040;8.850;2023-12-28T07:25:52;9.65;;;3.28;;
32333;SDS011;18810;53.040;8.850;2023-12-28T07:28:18;11.18;;;4.35;;
32333;SDS011;18810;53.040;8.850;2023-12-28T07:30:43;10.07;;;3.60;;
32333;SDS011;18810;53.040;8.850;2023-12-28T07:33:09;8.15;;;3.30;;
32333;SDS011;18810;53.040;8.850;2023-12-28T07:35:35;11.18;;;3.85;;
32333;SDS011;18810;53.040;8.850;2023-12-28T07:38:01;14.65;;;3.90;;
32333;SDS011;18810;53.040;8.850;2023-12-28T07:40:27;10.73;;;3.65;;
32333;SDS011;18810;53.040;8.850;2023-12-28T07:42:53;11.65;;;3.72;;
32333;SDS011;18810;53.040;8.850;2023-12-28T07:45:18;9.95;;;3.50;;
32333;SDS011;18810;53.040;8.850;2023-12-28T07:47:48;6.72;;;2.92;;
32333;SDS011;18810;53.040;8.850;2023-12-28T07:50:16;8.60;;;3.17;;
32333;SDS011;18810;53.040;8.850;2023-12-28T07:52:42;8.98;;;3.90;;
32333;SDS011;18810;53.040;8.850;2023-12-28T07:55:08;13.02;;;3.63;;
32333;SDS011;18810;53.040;8.850;2023-12-28T07:57:34;12.32;;;3.97;;
32333;SDS011;18810;53.040;8.850;2023-12-28T08:00:00;12.10;;;3.22;;
32333;SDS011;18810;53.040;8.850;2023-12-28T08:02:26;12.55;;;3.35;;
32333;SDS011;18810;53.040;8.850;2023-12-28T08:04:52;11.52;;;3.40;;
32333;SDS011;18810;53.040;8.850;2023-12-28T08:07:18;9.23;;;3.50;;
32333;SDS011;18810;53.040;8.850;2023-12-28T08:09:44;11.20;;;3.80;;
32333;SDS011;18810;53.040;8.850;2023-12-28T08:12:10;8.85;;;2.88;;
32333;SDS011;18810;53.040;8.850;2023-12-28T08:14:35;17.08;;;3.47;;
32333;SDS011;18810;53.040;8.850;2023-12-28T08:17:01;14.18;;;3.75;;
32333;SDS011;18810;53.040;8.850;2023-12-28T08:19:28;13.25;;;3.33;;
32333;SDS011;18810;53.040;8.850;2023-12-28T08:21:53;12.63;;;3.40;;
32333;SDS011;18810;53.040;8.850;2023-12-28T08:24:19;10.18;;;3.22;;
32333;SDS011;18810;53.040;8.850;2023-12-28T08:26:45;12.50;;;3.50;;
32333;SDS011;18810;53.040;8.850;2023-12-28T08:29:10;9.85;;;3.15;;
32333;SDS011;18810;53.040;8.850;2023-12-28T08:31:36;11.45;;;3.05;;
32333;SDS011;18810;53.040;8.850;2023-12-28T08:34:02;6.25;;;2.85;;
32333;SDS011;18810;53.040;8.850;2023-12-28T08:36:28;12.05;;;2.90;;
32333;SDS011;18810;53.040;8.850;2023-12-28T08:38:54;8.55;;;3.65;;
32333;SDS011;18810;53.040;8.850;2023-12-28T08:41:20;12.80;;;3.75;;
32333;SDS011;18810;53.040;8.850;2023-12-28T08:43:48;9.40;;;3.28;;
32333;SDS011;18810;53.040;8.850;2023-12-28T08:46:15;9.57;;;3.28;;
32333;SDS011;18810;53.040;8.850;2023-12-28T08:48:41;11.15;;;3.63;;
32333;SDS011;18810;53.040;8.850;2023-12-28T08:51:10;9.68;;;3.65;;
32333;SDS011;18810;53.040;8.850;2023-12-28T08:53:36;8.95;;;3.35;;
32333;SDS011;18810;53.040;8.850;2023-12-28T08:56:03;10.93;;;3.13;;
32333;SDS011;18810;53.040;8.850;2023-12-28T08:58:38;8.07;;;2.60;;
32333;SDS011;18810;53.040;8.850;2023-12-28T09:01:03;9.13;;;2.83;;
32333;SDS011;18810;53.040;8.850;2023-12-28T09:03:29;15.00;;;3.20;;
32333;SDS011;18810;53.040;8.850;2023-12-28T09:05:55;11.52;;;3.20;;
32333;SDS011;18810;53.040;8.850;2023-12-28T09:08:20;12.70;;;4.13;;
32333;SDS011;18810;53.040;8.850;2023-12-28T09:10:46;13.27;;;4.15;;
32333;SDS011;18810;53.040;8.850;2023-12-28T09:13:15;9.85;;;3.10;;
32333;SDS011;18810;53.040;8.850;2023-12-28T09:15:44;12.15;;;3.97;;
32333;SDS011;18810;53.040;8.850;2023-12-28T09:18:11;10.40;;;3.15;;
32333;SDS011;18810;53.040;8.850;2023-12-28T09:20:36;13.80;;;3.38;;
32333;SDS011;18810;53.040;8.850;2023-12-28T09:23:02;17.00;;;4.10;;
32333;SDS011;18810;53.040;8.850;2023-12-28T09:25:28;13.18;;;3.60;;
32333;SDS011;18810;53.040;8.850;2023-12-28T09:27:53;10.80;;;3.13;;
32333;SDS011;18810;53.040;8.850;2023-12-28T09:30:19;12.25;;;3.60;;
32333;SDS011;18810;53.040;8.850;2023-12-28T09:32:45;13.93;;;3.22;;
32333;SDS011;18810;53.040;8.850;2023-12-28T09:35:10;11.23;;;3.00;;
32333;SDS011;18810;53.040;8.850;2023-12-28T09:37:36;8.30;;;2.72;;
32333;SDS011;18810;53.040;8.850;2023-12-28T09:40:02;12.48;;;2.95;;
32333;SDS011;18810;53.040;8.850;2023-12-28T09:42:30;10.40;;;3.17;;
32333;SDS011;18810;53.040;8.850;2023-12-28T09:45:03;13.07;;;3.08;;
32333;SDS011;18810;53.040;8.850;2023-12-28T09:47:31;11.80;;;3.30;;
32333;SDS011;18810;53.040;8.850;2023-12-28T09:49:58;14.77;;;3.55;;
32333;SDS011;18810;53.040;8.850;2023-12-28T09:52:23;10.48;;;3.60;;
32333;SDS011;18810;53.040;8.850;2023-12-28T09:54:49;11.80;;;4.00;;
32333;SDS011;18810;53.040;8.850;2023-12-28T09:57:15;7.60;;;3.65;;
32333;SDS011;18810;53.040;8.850;2023-12-28T09:59:41;14.90;;;3.47;;
32333;SDS011;18810;53.040;8.850;2023-12-28T10:02:07;10.05;;;3.03;;
32333;SDS011;18810;53.040;8.850;2023-12-28T10:04:33;14.75;;;3.55;;
32333;SDS011;18810;53.040;8.850;2023-12-28T10:06:59;13.77;;;4.20;;
32333;SDS011;18810;53.040;8.850;2023-12-28T10:09:25;20.45;;;4.10;;
32333;SDS011;18810;53.040;8.850;2023-12-28T10:11:52;10.05;;;3.65;;
32333;SDS011;18810;53.040;8.850;2023-12-28T10:14:19;15.23;;;4.07;;
32333;SDS011;18810;53.040;8.850;2023-12-28T10:16:45;9.43;;;3.88;;
32333;SDS011;18810;53.040;8.850;2023-12-28T10:19:12;11.45;;;3.33;;
32333;SDS011;18810;53.040;8.850;2023-12-28T10:21:42;15.05;;;4.03;;
32333;SDS011;18810;53.040;8.850;2023-12-28T10:24:09;11.25;;;3.88;;
32333;SDS011;18810;53.040;8.850;2023-12-28T10:26:36;18.48;;;4.57;;
32333;SDS011;18810;53.040;8.850;2023-12-28T10:29:01;10.70;;;3.40;;
32333;SDS011;18810;53.040;8.850;2023-12-28T10:31:28;18.23;;;3.78;;
32333;SDS011;18810;53.040;8.850;2023-12-28T10:33:57;18.90;;;3.75;;
32333;SDS011;18810;53.040;8.850;2023-12-28T10:36:24;16.45;;;3.78;;
32333;SDS011;18810;53.040;8.850;2023-12-28T10:38:52;17.10;;;4.00;;
32333;SDS011;18810;53.040;8.850;2023-12-28T10:41:19;11.68;;;3.17;;
32333;SDS011;18810;53.040;8.850;2023-12-28T10:43:52;13.15;;;4.53;;
32333;SDS011;18810;53.040;8.850;2023-12-28T10:46:25;12.85;;;3.38;;
32333;SDS011;18810;53.040;8.850;2023-12-28T10:48:52;11.10;;;3.42;;
32333;SDS011;18810;53.040;8.850;2023-12-28T10:51:24;11.50;;;3.80;;
32333;SDS011;18810;53.040;8.850;2023-12-28T11:01:42;12.82;;;2.97;;
32333;SDS011;18810;53.040;8.850;2023-12-28T11:04:23;12.20;;;3.80;;
32333;SDS011;18810;53.040;8.850;2023-12-28T11:06:55;13.13;;;4.22;;
32333;SDS011;18810;53.040;8.850;2023-12-28T11:09:22;15.70;;;3.95;;
32333;SDS011;18810;53.040;8.850;2023-12-28T11:11:51;15.98;;;3.97;;
32333;SDS011;18810;53.040;8.850;2023-12-28T11:14:19;12.50;;;3.17;;
32333;SDS011;18810;53.040;8.850;2023-12-28T11:16:46;10.32;;;3.35;;
32333;SDS011;18810;53.040;8.850;2023-12-28T11:19:12;13.50;;;3.15;;
32333;SDS011;18810;53.040;8.850;2023-12-28T11:21:38;15.32;;;3.45;;
32333;SDS011;18810;53.040;8.850;2023-12-28T11:24:05;18.13;;;4.13;;
32333;SDS011;18810;53.040;8.850;2023-12-28T11:26:32;14.80;;;4.03;;
32333;SDS011;18810;53.040;8.850;2023-12-28T11:29:04;15.73;;;3.90;;
32333;SDS011;18810;53.040;8.850;2023-12-28T11:31:33;17.40;;;4.10;;
32333;SDS011;18810;53.040;8.850;2023-12-28T11:34:00;13.20;;;3.30;;
32333;SDS011;18810;53.040;8.850;2023-12-28T11:36:33;15.25;;;4.15;;
32333;SDS011;18810;53.040;8.850;2023-12-28T11:39:03;16.08;;;3.42;;
32333;SDS011;18810;53.040;8.850;2023-12-28T11:41:31;18.98;;;3.55;;
32333;SDS011;18810;53.040;8.850;2023-12-28T11:44:01;12.65;;;3.42;;
32333;SDS011;18810;53.040;8.850;2023-12-28T11:46:31;14.85;;;4.20;;
32333;SDS011;18810;53.040;8.850;2023-12-28T11:49:06;14.23;;;3.40;;
32333;SDS011;18810;53.040;8.850;2023-12-28T11:51:36;15.50;;;4.20;;
32333;SDS011;18810;53.040;8.850;2023-12-28T11:54:04;19.00;;;4.45;;
32333;SDS011;18810;53.040;8.850;2023-12-28T11:56:31;16.02;;;3.78;;
32333;SDS011;18810;53.040;8.850;2023-12-28T11:58:58;21.20;;;4.53;;
32333;SDS011;18810;53.040;8.850;2023-12-28T12:01:24;17.45;;;4.22;;
32333;SDS011;18810;53.040;8.850;2023-12-28T12:03:50;15.07;;;3.50;;
32333;SDS011;18810;53.040;8.850;2023-12-28T12:06:16;17.45;;;4.38;;
32333;SDS011;18810;53.040;8.850;2023-12-28T12:08:44;19.42;;;3.92;;
32333;SDS011;18810;53.040;8.850;2023-12-28T12:11:11;15.70;;;3.85;;
32333;SDS011;18810;53.040;8.850;2023-12-28T12:13:37;16.85;;;3.75;;
32333;SDS011;18810;53.040;8.850;2023-12-28T12:16:03;13.02;;;3.67;;
32333;SDS011;18810;53.040;8.850;2023-12-28T12:18:31;13.45;;;3.08;;
32333;SDS011;18810;53.040;8.850;2023-12-28T12:20:58;12.77;;;3.58;;
32333;SDS011;18810;53.040;8.850;2023-12-28T12:23:24;14.77;;;3.72;;
32333;SDS011;18810;53.040;8.850;2023-12-28T12:25:50;14.73;;;3.78;;
32333;SDS011;18810;53.040;8.850;2023-12-28T12:28:17;10.25;;;3.25;;
32333;SDS011;18810;53.040;8.850;2023-12-28T12:30:49;17.42;;;3.95;;
32333;SDS011;18810;53.040;8.850;2023-12-28T12:33:20;17.15;;;3.83;;
32333;SDS011;18810;53.040;8.850;2023-12-28T12:35:46;12.43;;;3.92;;
32333;SDS011;18810;53.040;8.850;2023-12-28T12:38:11;14.32;;;3.92;;
32333;SDS011;18810;53.040;8.850;2023-12-28T12:40:37;16.27;;;3.78;;
32333;SDS011;18810;53.040;8.850;2023-12-28T12:43:03;11.20;;;3.25;;
32333;SDS011;18810;53.040;8.850;2023-12-28T12:45:29;17.88;;;3.67;;
32333;SDS011;18810;53.040;8.850;2023-12-28T12:47:54;17.52;;;3.92;;
32333;SDS011;18810;53.040;8.850;2023-12-28T12:50:22;20.30;;;4.45;;
32333;SDS011;18810;53.040;8.850;2023-12-28T12:52:48;17.17;;;3.78;;
32333;SDS011;18810;53.040;8.850;2023-12-28T12:55:14;18.70;;;4.68;;
32333;SDS011;18810;53.040;8.850;2023-12-28T12:57:40;19.95;;;4.68;;
32333;SDS011;18810;53.040;8.850;2023-12-28T13:00:06;11.13;;;3.25;;
32333;SDS011;18810;53.040;8.850;2023-12-28T13:02:34;17.30;;;3.65;;
32333;SDS011;18810;53.040;8.850;2023-12-28T13:05:04;19.15;;;4.18;;
32333;SDS011;18810;53.040;8.850;2023-12-28T13:07:30;16.65;;;3.47;;
32333;SDS011;18810;53.040;8.850;2023-12-28T13:09:57;22.85;;;4.30;;
32333;SDS011;18810;53.040;8.850;2023-12-28T13:12:22;15.80;;;3.72;;
32333;SDS011;18810;53.040;8.850;2023-12-28T13:14:49;18.73;;;4.05;;
32333;SDS011;18810;53.040;8.850;2023-12-28T13:17:15;20.23;;;4.63;;
32333;SDS011;18810;53.040;8.850;2023-12-28T13:19:41;14.90;;;4.15;;
32333;SDS011;18810;53.040;8.850;2023-12-28T13:22:07;19.98;;;4.68;;
32333;SDS011;18810;53.040;8.850;2023-12-28T13:24:33;17.67;;;3.53;;
32333;SDS011;18810;53.040;8.850;2023-12-28T13:26:59;12.20;;;3.42;;
32333;SDS011;18810;53.040;8.850;2023-12-28T13:29:25;16.27;;;3.60;;
32333;SDS011;18810;53.040;8.850;2023-12-28T13:31:51;18.67;;;4.30;;
32333;SDS011;18810;53.040;8.850;2023-12-28T13:34:17;17.55;;;4.15;;
32333;SDS011;18810;53.040;8.850;2023-12-28T13:36:44;15.15;;;4.03;;
32333;SDS011;18810;53.040;8.850;2023-12-28T13:39:10;13.55;;;3.92;;
32333;SDS011;18810;53.040;8.850;2023-12-28T13:41:39;17.48;;;3.85;;
32333;SDS011;18810;53.040;8.850;2023-12-28T13:44:07;15.43;;;3.53;;
32333;SDS011;18810;53.040;8.850;2023-12-28T13:46:37;16.65;;;3.95;;
32333;SDS011;18810;53.040;8.850;2023-12-28T13:49:03;16.08;;;3.80;;
32333;SDS011;18810;53.040;8.850;2023-12-28T13:51:30;14.48;;;3.92;;
32333;SDS011;18810;53.040;8.850;2023-12-28T13:53:56;18.52;;;4.03;;
32333;SDS011;18810;53.040;8.850;2023-12-28T13:56:21;17.15;;;3.50;;
32333;SDS011;18810;53.040;8.850;2023-12-28T13:58:47;17.92;;;4.45;;
32333;SDS011;18810;53.040;8.850;2023-12-28T14:01:13;16.25;;;3.97;;
32333;SDS011;18810;53.040;8.850;2023-12-28T14:03:41;15.07;;;3.50;;
32333;SDS011;18810;53.040;8.850;2023-12-28T14:06:09;18.63;;;4.50;;
32333;SDS011;18810;53.040;8.850;2023-12-28T14:08:35;18.10;;;3.95;;
32333;SDS011;18810;53.040;8.850;2023-12-28T14:11:01;17.60;;;3.80;;
32333;SDS011;18810;53.040;8.850;2023-12-28T14:13:27;17.42;;;4.25;;
32333;SDS011;18810;53.040;8.850;2023-12-28T14:15:53;18.95;;;4.22;;
32333;SDS011;18810;53.040;8.850;2023-12-28T14:18:19;14.77;;;3.83;;
32333;SDS011;18810;53.040;8.850;2023-12-28T14:20:45;13.32;;;3.70;;
32333;SDS011;18810;53.040;8.850;2023-12-28T14:23:10;21.10;;;3.85;;
32333;SDS011;18810;53.040;8.850;2023-12-28T14:25:37;20.33;;;4.90;;
32333;SDS011;18810;53.040;8.850;2023-12-28T14:28:03;13.63;;;3.33;;
32333;SDS011;18810;53.040;8.850;2023-12-28T14:30:30;10.20;;;3.13;;
32333;SDS011;18810;53.040;8.850;2023-12-28T14:32:56;16.98;;;4.28;;
32333;SDS011;18810;53.040;8.850;2023-12-28T14:35:22;18.60;;;3.78;;
32333;SDS011;18810;53.040;8.850;2023-12-28T14:37:50;16.80;;;4.07;;
32333;SDS011;18810;53.040;8.850;2023-12-28T14:40:16;16.80;;;3.70;;
32333;SDS011;18810;53.040;8.850;2023-12-28T14:42:42;19.80;;;4.30;;
32333;SDS011;18810;53.040;8.850;2023-12-28T14:45:07;15.52;;;3.80;;